Quechee, Vermont
Current Conditions -  °F | °C
As of 7:53 PM on Saturday 22 Nov 2014 (Local Time) from KLEB Reporting Station
Overcast Overcast  
Wind Chill: 30°   Ceiling: 3400
Heat Index: 38°   Visibility: 10mi
Dew Point: 15°   Wind: 14mph
Humidity: 39%   Direction: 180°S
Pressure: 29.99"   Gusts: NA
Location:  43.65°N, 72.42°W
Report Text: KLEB 230053Z 18012KT 10SM OVC034 03/M09 A2999 RMK AO2 SLP163 T00331094
Loading
Personal Weather Stations






























Interactive Weather Map New forecast layout! Learn more

10-Day Weather Forecast

Advertisements
Track Severe Weather on mobile